createdAt,value
2023-03-17T00:00:59.342Z,8.80
2023-03-17T00:06:01.968Z,8.70
2023-03-17T00:11:03.949Z,8.70
2023-03-17T00:16:20.095Z,8.70
2023-03-17T00:21:30.611Z,8.60
2023-03-17T00:26:33.386Z,8.50
2023-03-17T00:31:35.802Z,8.40
2023-03-17T00:36:37.664Z,8.40
2023-03-17T00:41:39.557Z,8.30
2023-03-17T00:46:42.219Z,8.30
2023-03-17T00:51:45.885Z,8.30
2023-03-17T00:56:52.003Z,8.20
2023-03-17T01:01:54.671Z,8.20
2023-03-17T01:06:58.573Z,8.20
2023-03-17T01:12:03.675Z,8.10
2023-03-17T01:17:15.230Z,8.10
2023-03-17T01:22:17.103Z,8.10
2023-03-17T01:27:19.405Z,8.10
2023-03-17T01:32:22.226Z,8.10
2023-03-17T01:37:24.126Z,8.20
2023-03-17T01:42:25.994Z,8.10
2023-03-17T01:47:32.618Z,8.00
2023-03-17T01:52:36.778Z,8.00
2023-03-17T01:57:42.541Z,7.90
2023-03-17T02:02:47.856Z,7.70
2023-03-17T02:07:49.989Z,7.60
2023-03-17T02:12:58.520Z,7.60
2023-03-17T02:18:00.404Z,7.60
2023-03-17T02:23:04.165Z,7.60
2023-03-17T02:28:16.231Z,7.60
2023-03-17T02:33:19.077Z,7.80
2023-03-17T02:38:21.817Z,7.70
2023-03-17T02:43:23.885Z,7.60
2023-03-17T02:48:26.313Z,7.60
2023-03-17T02:53:28.214Z,7.70
2023-03-17T02:58:30.056Z,7.80
2023-03-17T03:03:32.017Z,7.80
2023-03-17T03:08:33.894Z,7.90
2023-03-17T03:13:36.636Z,7.80
2023-03-17T03:18:38.482Z,7.80
2023-03-17T03:23:40.432Z,7.80
2023-03-17T03:28:42.257Z,7.70
2023-03-17T03:33:44.909Z,7.70
2023-03-17T03:38:46.736Z,7.70
2023-03-17T03:43:48.629Z,7.60
2023-03-17T03:48:50.620Z,7.50
2023-03-17T03:53:52.414Z,7.50
2023-03-17T03:58:54.170Z,7.50
2023-03-17T04:03:56.106Z,7.50
2023-03-17T04:08:58.516Z,7.60
2023-03-17T04:14:00.394Z,7.70
2023-03-17T04:19:02.366Z,7.80
2023-03-17T04:24:05.217Z,7.80
2023-03-17T04:29:09.516Z,7.90
2023-03-17T04:34:16.300Z,7.90
2023-03-17T04:39:18.364Z,7.90
2023-03-17T04:44:20.349Z,7.90
2023-03-17T04:49:22.181Z,7.90
2023-03-17T04:54:24.040Z,7.80
2023-03-17T04:59:26.058Z,7.80
2023-03-17T05:04:31.621Z,7.70
2023-03-17T05:09:34.158Z,7.70
2023-03-17T05:14:37.229Z,7.60
2023-03-17T05:19:39.247Z,7.50
2023-03-17T05:24:41.038Z,7.50
2023-03-17T05:29:42.980Z,7.30
2023-03-17T05:34:45.199Z,7.10
2023-03-17T05:39:47.119Z,7.10
2023-03-17T05:44:49.041Z,7.10
2023-03-17T05:49:51.085Z,7.00
2023-03-17T05:54:53.521Z,6.90
2023-03-17T05:59:55.633Z,6.70
2023-03-17T06:04:57.831Z,6.60
2023-03-17T06:10:00.516Z,6.70
2023-03-17T06:15:02.737Z,6.70
2023-03-17T06:20:05.621Z,6.70
2023-03-17T06:25:08.469Z,6.80
2023-03-17T06:30:11.558Z,6.80
2023-03-17T06:35:13.629Z,6.80
2023-03-17T06:40:16.231Z,6.90
2023-03-17T06:45:18.273Z,6.80
2023-03-17T06:50:20.345Z,6.80
2023-03-17T06:55:22.465Z,6.80
2023-03-17T07:00:24.424Z,7.00
2023-03-17T07:05:26.882Z,7.10
2023-03-17T07:10:28.865Z,7.30
2023-03-17T07:15:35.019Z,7.50
2023-03-17T07:20:37.232Z,7.70
2023-03-17T07:25:40.453Z,7.90
2023-03-17T07:30:46.669Z,8.10
2023-03-17T07:35:49.716Z,8.20
2023-03-17T07:40:53.114Z,8.40
2023-03-17T07:45:55.082Z,8.60
2023-03-17T07:50:57.005Z,8.90
2023-03-17T07:55:58.864Z,9.10
2023-03-17T08:01:03.350Z,9.30
2023-03-17T08:06:06.197Z,9.60
2023-03-17T08:11:08.207Z,9.80
2023-03-17T08:16:10.985Z,10.10
2023-03-17T08:21:14.809Z,10.30
2023-03-17T08:26:18.682Z,10.50
2023-03-17T08:31:21.663Z,10.60
2023-03-17T08:36:24.068Z,10.90
2023-03-17T08:41:28.234Z,11.00
2023-03-17T08:46:31.858Z,11.20
2023-03-17T08:51:36.895Z,11.50
2023-03-17T08:56:40.512Z,11.70
2023-03-17T09:01:44.234Z,12.10
2023-03-17T09:07:01.874Z,12.50
2023-03-17T09:12:06.481Z,12.90
2023-03-17T09:17:08.547Z,13.00
2023-03-17T09:22:15.211Z,13.00
2023-03-17T09:27:17.155Z,13.20
2023-03-17T09:32:19.587Z,13.40
2023-03-17T09:37:21.890Z,13.40
2023-03-17T09:42:44.539Z,13.50
2023-03-17T09:48:04.802Z,13.70
2023-03-17T09:53:35.955Z,13.80
2023-03-17T09:58:41.686Z,14.10
2023-03-17T10:03:43.628Z,14.50
2023-03-17T10:08:55.467Z,14.70
2023-03-17T10:14:05.261Z,15.10
2023-03-17T10:19:27.464Z,15.40
2023-03-17T10:24:32.495Z,15.70
2023-03-17T10:29:34.332Z,16.00
2023-03-17T10:34:38.126Z,16.20
2023-03-17T10:39:52.671Z,16.40
2023-03-17T10:45:07.216Z,16.80
2023-03-17T10:50:15.540Z,17.00
2023-03-17T10:55:21.343Z,17.10
2023-03-17T11:00:24.638Z,17.30
2023-03-17T11:05:29.203Z,17.50
2023-03-17T11:10:37.870Z,17.60
2023-03-17T11:16:01.908Z,17.80
2023-03-17T11:21:22.899Z,17.90
2023-03-17T11:26:34.852Z,17.70
2023-03-17T11:31:55.914Z,17.70
2023-03-17T11:37:14.701Z,17.70
2023-03-17T11:42:19.679Z,17.70
2023-03-17T11:47:31.918Z,18.00
2023-03-17T11:52:36.785Z,18.20
2023-03-17T11:58:01.457Z,18.20
2023-03-17T12:03:12.501Z,18.20
2023-03-17T12:08:35.394Z,18.20
2023-03-17T12:13:45.958Z,18.20
2023-03-17T12:19:05.064Z,18.30
2023-03-17T12:24:31.517Z,18.50
2023-03-17T12:29:55.895Z,18.60
2023-03-17T12:35:02.863Z,18.30
2023-03-17T12:40:14.464Z,18.30
2023-03-17T12:45:49.833Z,18.60
2023-03-17T12:51:16.886Z,18.80
2023-03-17T12:56:31.484Z,19.20
2023-03-17T13:01:39.845Z,19.50
2023-03-17T13:06:53.115Z,19.50
2023-03-17T13:11:55.111Z,19.60
2023-03-17T13:17:19.870Z,19.80
2023-03-17T13:22:21.609Z,19.90
2023-03-17T13:27:32.450Z,20.20
2023-03-17T13:32:36.644Z,20.20
2023-03-17T13:38:05.344Z,20.30
2023-03-17T13:43:07.335Z,20.60
2023-03-17T13:48:21.300Z,20.70
2023-03-17T13:53:27.630Z,21.00
2023-03-17T13:58:34.204Z,21.10
2023-03-17T14:03:42.452Z,21.20
2023-03-17T14:08:47.725Z,21.30
2023-03-17T14:14:32.873Z,21.40
2023-03-17T14:19:38.986Z,21.60
2023-03-17T14:24:40.920Z,21.50
2023-03-17T14:29:43.364Z,21.60
2023-03-17T14:34:53.003Z,21.60
2023-03-17T14:39:57.464Z,21.60
2023-03-17T14:45:06.633Z,21.40
2023-03-17T14:50:31.554Z,21.40
2023-03-17T14:55:43.430Z,21.50
2023-03-17T15:00:47.197Z,21.50
2023-03-17T15:05:50.068Z,21.50
2023-03-17T15:10:52.399Z,21.50
2023-03-17T15:15:55.403Z,21.60
2023-03-17T15:20:58.329Z,21.60
2023-03-17T15:26:03.311Z,21.70
2023-03-17T15:31:13.453Z,21.70
2023-03-17T15:36:31.203Z,21.80
2023-03-17T15:41:34.290Z,21.60
2023-03-17T15:46:36.795Z,21.50
2023-03-17T15:51:38.975Z,21.50
2023-03-17T15:56:43.226Z,21.50
2023-03-17T16:01:45.194Z,21.60
2023-03-17T16:06:49.125Z,21.60
2023-03-17T16:11:52.236Z,21.70
2023-03-17T16:16:54.056Z,21.70
2023-03-17T16:21:56.432Z,21.70
2023-03-17T16:26:58.265Z,21.20
2023-03-17T16:32:00.177Z,21.10
2023-03-17T16:37:03.156Z,20.90
2023-03-17T16:42:05.408Z,20.70
2023-03-17T16:47:09.142Z,20.60
2023-03-17T16:52:12.133Z,20.50
2023-03-17T16:57:14.113Z,20.30
2023-03-17T17:02:16.344Z,20.10
2023-03-17T17:07:18.131Z,19.90
2023-03-17T17:12:19.951Z,19.50
2023-03-17T17:17:21.791Z,19.40
2023-03-17T17:22:23.622Z,19.40
2023-03-17T17:27:25.942Z,19.40
2023-03-17T17:32:27.828Z,19.30
2023-03-17T17:37:29.769Z,19.20
2023-03-17T17:42:31.994Z,19.10
2023-03-17T17:47:33.940Z,19.00
2023-03-17T17:52:35.877Z,18.80
2023-03-17T17:57:37.723Z,18.60
2023-03-17T18:02:39.690Z,18.50
2023-03-17T18:07:41.741Z,18.10
2023-03-17T18:12:43.627Z,17.80
2023-03-17T18:17:45.845Z,17.60
2023-03-17T18:22:48.234Z,17.50
2023-03-17T18:27:50.229Z,17.40
2023-03-17T18:32:59.472Z,17.40
2023-03-17T18:38:01.949Z,17.30
2023-03-17T18:43:04.274Z,17.20
2023-03-17T18:48:06.830Z,17.20
2023-03-17T18:53:08.778Z,17.20
2023-03-17T18:58:13.722Z,17.20
2023-03-17T19:03:15.622Z,17.10
2023-03-17T19:08:19.637Z,17.10
2023-03-17T19:13:21.509Z,17.00
2023-03-17T19:18:23.425Z,16.90
2023-03-17T19:23:25.478Z,16.80
2023-03-17T19:28:27.578Z,16.70
2023-03-17T19:33:29.518Z,16.70
2023-03-17T19:38:31.984Z,16.60
2023-03-17T19:43:40.803Z,16.50
2023-03-17T19:48:43.543Z,16.40
2023-03-17T19:53:45.775Z,16.30
2023-03-17T19:58:47.762Z,16.40
2023-03-17T20:03:49.690Z,16.20
2023-03-17T20:08:51.772Z,16.20
2023-03-17T20:13:53.626Z,16.20
2023-03-17T20:18:56.026Z,16.10
2023-03-17T20:23:57.925Z,15.90
2023-03-17T20:29:00.812Z,15.80
2023-03-17T20:34:02.761Z,15.80
2023-03-17T20:39:05.793Z,15.60
2023-03-17T20:44:08.051Z,15.60
2023-03-17T20:49:10.604Z,15.60
2023-03-17T20:54:12.917Z,15.50
2023-03-17T20:59:15.389Z,15.40
2023-03-17T21:04:17.880Z,15.30
2023-03-17T21:09:19.794Z,15.20
2023-03-17T21:14:21.790Z,15.20
2023-03-17T21:19:24.005Z,15.10
2023-03-17T21:24:28.717Z,15.00
2023-03-17T21:29:32.235Z,14.80
2023-03-17T21:34:34.564Z,14.60
2023-03-17T21:39:36.643Z,14.40
2023-03-17T21:44:39.564Z,14.40
2023-03-17T21:49:41.752Z,14.30
2023-03-17T21:54:43.724Z,14.10
2023-03-17T21:59:45.693Z,14.00
2023-03-17T22:04:49.567Z,13.80
2023-03-17T22:09:53.087Z,13.70
2023-03-17T22:14:58.104Z,13.80
2023-03-17T22:20:00.025Z,13.70
2023-03-17T22:25:05.065Z,13.70
2023-03-17T22:30:07.657Z,13.70
2023-03-17T22:35:09.592Z,13.70
2023-03-17T22:40:12.167Z,13.60
2023-03-17T22:45:14.619Z,13.60
2023-03-17T22:50:17.029Z,13.60
2023-03-17T22:55:19.074Z,13.50
2023-03-17T23:00:21.498Z,13.50
2023-03-17T23:05:23.563Z,13.40
2023-03-17T23:10:25.496Z,13.40
2023-03-17T23:15:28.018Z,13.40
2023-03-17T23:20:30.524Z,13.40
2023-03-17T23:25:33.215Z,13.30
2023-03-17T23:30:35.895Z,13.40
2023-03-17T23:35:38.156Z,13.20
2023-03-17T23:40:40.122Z,13.10
2023-03-17T23:45:42.317Z,13.00
2023-03-17T23:50:44.216Z,12.90
2023-03-17T23:55:46.786Z,12.80
